Time;durP1;ratioP1;P1;durP2;ratioP2;P2;SDS_P1;SDS_P2;PMS_P1;PMS_P2;Temp;Humidity;BMP_temperature;BMP_pressure;BME280_temperature;BME280_humidity;BME280_pressure;Samples;Min_cycle;Max_cycle;Signal;HPM_P1;HPM_P2
2023/05/21 00:00:19;;;;;;;40.75;22.88;;;;;;;;;;5032063;28;20107;-74
2023/05/21 00:02:45;;;;;;;45.17;23.40;;;;;;;;;;5050502;28;20021;-74
2023/05/21 00:05:12;;;;;;;43.25;23.80;;;;;;;;;;5032164;28;20035;-73
2023/05/21 00:07:37;;;;;;;39.05;23.20;;;;;;;;;;5032072;28;20053;-74
2023/05/21 00:10:03;;;;;;;43.10;24.70;;;;;;;;;;5050218;28;20029;-75
2023/05/21 00:12:31;;;;;;;45.15;24.42;;;;;;;;;;5031733;28;20032;-74
2023/05/21 00:14:56;;;;;;;42.80;24.02;;;;;;;;;;5031974;28;20102;-74
2023/05/21 00:17:22;;;;;;;41.15;24.38;;;;;;;;;;5031839;28;20029;-73
2023/05/21 00:19:49;;;;;;;39.88;24.08;;;;;;;;;;5032089;28;20102;-73
2023/05/21 00:22:15;;;;;;;41.33;22.58;;;;;;;;;;5031895;28;20033;-74
2023/05/21 00:24:41;;;;;;;41.25;22.40;;;;;;;;;;5049965;28;20048;-74
2023/05/21 00:27:07;;;;;;;40.25;23.25;;;;;;;;;;5031779;28;20032;-74
2023/05/21 00:29:32;;;;;;;46.20;24.08;;;;;;;;;;5015578;28;20505;-75
2023/05/21 00:31:58;;;;;;;37.20;22.33;;;;;;;;;;5032097;28;20035;-73
2023/05/21 00:34:23;;;;;;;44.53;24.75;;;;;;;;;;5032481;28;20032;-73
2023/05/21 00:36:52;;;;;;;46.30;24.58;;;;;;;;;;5032769;28;20021;-74
2023/05/21 00:39:17;;;;;;;40.28;23.92;;;;;;;;;;5033458;28;20028;-74
2023/05/21 00:41:45;;;;;;;39.42;24.25;;;;;;;;;;5036946;28;20029;-73
2023/05/21 00:44:12;;;;;;;46.33;25.52;;;;;;;;;;5043899;28;20056;-73
2023/05/21 00:46:39;;;;;;;42.67;23.63;;;;;;;;;;5039032;28;20021;-73
2023/05/21 00:49:05;;;;;;;50.33;26.20;;;;;;;;;;5037256;28;20064;-74
2023/05/21 00:51:31;;;;;;;45.25;25.05;;;;;;;;;;5032041;28;20485;-73
2023/05/21 00:53:57;;;;;;;43.40;24.02;;;;;;;;;;5031696;28;20057;-74
2023/05/21 00:56:26;;;;;;;44.13;24.02;;;;;;;;;;5031116;28;20052;-74
2023/05/21 00:58:52;;;;;;;38.72;22.67;;;;;;;;;;5031414;28;20025;-73
2023/05/21 01:01:18;;;;;;;47.10;25.30;;;;;;;;;;5049273;28;20053;-73
2023/05/21 01:03:47;;;;;;;44.47;23.90;;;;;;;;;;5015042;28;20064;-73
2023/05/21 01:06:13;;;;;;;40.42;24.00;;;;;;;;;;5031355;28;20115;-74
2023/05/21 01:08:40;;;;;;;38.83;23.92;;;;;;;;;;5015348;28;20208;-74
2023/05/21 01:11:07;;;;;;;44.92;26.30;;;;;;;;;;5031302;28;20126;-74
2023/05/21 01:13:37;;;;;;;42.88;24.45;;;;;;;;;;5031548;28;20041;-74
2023/05/21 01:16:05;;;;;;;44.15;24.55;;;;;;;;;;5032198;28;20025;-74
2023/05/21 01:18:33;;;;;;;46.20;25.63;;;;;;;;;;5015413;28;20131;-74
2023/05/21 01:21:01;;;;;;;42.85;25.98;;;;;;;;;;5031870;28;20025;-74
2023/05/21 01:23:27;;;;;;;47.65;25.27;;;;;;;;;;5031008;28;20029;-74
2023/05/21 01:25:53;;;;;;;42.40;24.48;;;;;;;;;;5049760;28;20045;-73
2023/05/21 01:28:18;;;;;;;42.05;22.80;;;;;;;;;;5031184;28;20025;-74
2023/05/21 01:30:45;;;;;;;45.47;25.70;;;;;;;;;;5049277;28;20079;-73
2023/05/21 01:33:18;;;;;;;43.25;25.45;;;;;;;;;;5048918;28;20178;-73
2023/05/21 01:35:53;;;;;;;44.40;25.38;;;;;;;;;;5049260;28;20033;-74
2023/05/21 01:38:24;;;;;;;44.47;24.98;;;;;;;;;;5030777;28;20033;-74
2023/05/21 01:40:57;;;;;;;47.13;25.17;;;;;;;;;;5030860;28;20136;-73
2023/05/21 01:43:25;;;;;;;41.50;24.88;;;;;;;;;;5030254;28;20672;-74
2023/05/21 01:45:53;;;;;;;43.55;24.35;;;;;;;;;;5030551;28;20366;-73
2023/05/21 01:48:19;;;;;;;41.67;23.42;;;;;;;;;;5029845;28;20055;-73
2023/05/21 01:50:46;;;;;;;43.15;24.73;;;;;;;;;;5030106;28;20060;-73
2023/05/21 01:53:12;;;;;;;43.97;25.70;;;;;;;;;;5030595;28;20029;-74
2023/05/21 01:55:40;;;;;;;47.00;25.08;;;;;;;;;;5048907;28;20055;-72
2023/05/21 01:58:07;;;;;;;43.42;25.88;;;;;;;;;;5030413;28;20033;-74
2023/05/21 02:00:33;;;;;;;50.33;30.00;;;;;;;;;;5049044;28;20025;-73
2023/05/21 02:02:59;;;;;;;45.13;25.05;;;;;;;;;;5030797;28;20033;-73
2023/05/21 02:05:24;;;;;;;45.30;24.48;;;;;;;;;;5030964;28;20037;-74
2023/05/21 02:07:51;;;;;;;43.90;26.30;;;;;;;;;;5048994;28;20618;-73
2023/05/21 02:10:17;;;;;;;49.40;25.92;;;;;;;;;;5048546;28;20056;-73
2023/05/21 02:12:43;;;;;;;43.50;25.33;;;;;;;;;;5048635;28;20032;-73
2023/05/21 02:15:09;;;;;;;51.33;27.70;;;;;;;;;;5048860;28;20640;-73
2023/05/21 02:17:37;;;;;;;45.72;25.52;;;;;;;;;;5049036;28;20032;-73
2023/05/21 02:20:10;;;;;;;44.22;25.20;;;;;;;;;;5049130;28;20117;-73
2023/05/21 02:22:40;;;;;;;40.90;23.80;;;;;;;;;;5048907;28;20477;-75
2023/05/21 02:25:07;;;;;;;44.90;26.20;;;;;;;;;;5030434;28;20063;-74
2023/05/21 02:27:35;;;;;;;40.80;24.27;;;;;;;;;;5030444;28;20480;-74
2023/05/21 02:30:03;;;;;;;46.13;25.63;;;;;;;;;;5030100;28;20049;-73
2023/05/21 02:32:30;;;;;;;46.10;26.00;;;;;;;;;;5030327;28;20025;-73
2023/05/21 02:34:57;;;;;;;47.88;25.27;;;;;;;;;;5050418;28;20029;-74
2023/05/21 02:37:24;;;;;;;49.10;26.80;;;;;;;;;;5033849;28;20107;-74
2023/05/21 02:39:49;;;;;;;51.40;28.25;;;;;;;;;;5052116;28;20036;-73
2023/05/21 02:42:15;;;;;;;51.15;28.02;;;;;;;;;;5033717;28;20035;-74
2023/05/21 02:44:40;;;;;;;47.05;26.92;;;;;;;;;;5052005;28;20037;-74
2023/05/21 02:47:09;;;;;;;42.47;24.95;;;;;;;;;;5051796;28;20417;-75
2023/05/21 02:49:34;;;;;;;50.95;26.60;;;;;;;;;;5051888;28;20053;-74
2023/05/21 02:52:01;;;;;;;48.97;26.55;;;;;;;;;;5033716;28;20052;-74
2023/05/21 02:54:27;;;;;;;42.20;24.73;;;;;;;;;;5033464;28;20029;-74
2023/05/21 02:56:52;;;;;;;47.97;28.33;;;;;;;;;;5033878;28;20069;-75
2023/05/21 02:59:18;;;;;;;55.63;28.25;;;;;;;;;;5051988;28;20025;-74
2023/05/21 03:01:43;;;;;;;49.80;27.65;;;;;;;;;;5052037;28;20036;-74
2023/05/21 03:04:09;;;;;;;48.55;27.20;;;;;;;;;;5033501;28;20064;-74
2023/05/21 03:06:35;;;;;;;51.30;28.00;;;;;;;;;;5033599;28;20064;-74
2023/05/21 03:09:04;;;;;;;51.78;26.23;;;;;;;;;;5033539;28;20112;-74
2023/05/21 03:11:30;;;;;;;47.08;26.77;;;;;;;;;;5051185;28;20024;-74
2023/05/21 03:13:56;;;;;;;43.45;25.60;;;;;;;;;;5033204;28;20417;-74
2023/05/21 03:16:22;;;;;;;43.95;25.48;;;;;;;;;;5051085;28;20032;-74
2023/05/21 03:18:48;;;;;;;43.10;25.20;;;;;;;;;;5033197;28;20033;-74
2023/05/21 03:21:14;;;;;;;47.60;26.70;;;;;;;;;;5051014;28;20036;-74
2023/05/21 03:23:41;;;;;;;53.53;27.20;;;;;;;;;;5033511;28;20040;-74
2023/05/21 03:26:07;;;;;;;42.25;24.73;;;;;;;;;;5034345;28;20033;-73
2023/05/21 03:28:34;;;;;;;45.30;27.05;;;;;;;;;;5033790;28;20202;-74
2023/05/21 03:31:00;;;;;;;46.45;25.92;;;;;;;;;;5033275;28;20044;-74
2023/05/21 03:33:25;;;;;;;44.25;25.23;;;;;;;;;;5051070;28;20154;-74
2023/05/21 03:35:51;;;;;;;49.70;26.20;;;;;;;;;;5050949;28;20025;-74
2023/05/21 03:38:16;;;;;;;55.78;27.33;;;;;;;;;;5051058;28;20029;-73
2023/05/21 03:40:42;;;;;;;48.05;26.77;;;;;;;;;;5031596;28;20373;-74
2023/05/21 03:43:07;;;;;;;41.78;24.90;;;;;;;;;;5032645;28;20514;-74
2023/05/21 03:45:33;;;;;;;43.05;25.48;;;;;;;;;;5050193;28;20059;-73
2023/05/21 03:48:00;;;;;;;49.05;25.75;;;;;;;;;;5049946;28;20039;-73
2023/05/21 03:50:25;;;;;;;50.17;27.75;;;;;;;;;;5050497;28;20078;-73
2023/05/21 03:52:51;;;;;;;43.65;25.52;;;;;;;;;;5050580;28;20055;-73
2023/05/21 03:55:16;;;;;;;47.25;25.92;;;;;;;;;;5040152;28;20518;-73
2023/05/21 03:57:42;;;;;;;47.35;25.75;;;;;;;;;;5052474;28;20358;-73
2023/05/21 04:00:07;;;;;;;44.40;25.52;;;;;;;;;;5052664;28;20055;-74
2023/05/21 04:02:34;;;;;;;49.10;25.38;;;;;;;;;;5052179;28;20033;-73
2023/05/21 04:04:59;;;;;;;49.80;27.55;;;;;;;;;;5052650;28;20070;-74
2023/05/21 04:07:26;;;;;;;48.13;26.65;;;;;;;;;;5052706;28;20449;-75
2023/05/21 04:09:52;;;;;;;46.08;27.10;;;;;;;;;;5053181;28;20088;-74
2023/05/21 04:12:18;;;;;;;46.63;26.20;;;;;;;;;;5036432;28;20032;-73
2023/05/21 04:14:45;;;;;;;44.67;25.70;;;;;;;;;;5052401;28;20036;-74
2023/05/21 04:17:14;;;;;;;46.92;27.25;;;;;;;;;;5052154;28;20739;-74
2023/05/21 04:19:39;;;;;;;49.88;27.15;;;;;;;;;;5052695;28;20123;-73
2023/05/21 04:22:05;;;;;;;43.35;24.27;;;;;;;;;;5070873;28;20449;-74
2023/05/21 04:24:31;;;;;;;45.92;25.60;;;;;;;;;;5071036;28;20070;-75
2023/05/21 04:27:00;;;;;;;46.20;25.67;;;;;;;;;;5036249;28;20036;-75
2023/05/21 04:29:26;;;;;;;42.45;26.73;;;;;;;;;;5053001;28;20029;-75
2023/05/21 04:31:52;;;;;;;47.22;26.33;;;;;;;;;;5052876;28;20607;-74
2023/05/21 04:34:17;;;;;;;49.80;27.50;;;;;;;;;;5051760;28;20128;-74
2023/05/21 04:36:44;;;;;;;47.05;27.77;;;;;;;;;;5051845;28;20055;-74
2023/05/21 04:39:11;;;;;;;44.33;25.63;;;;;;;;;;5069948;28;20020;-74
2023/05/21 04:41:37;;;;;;;43.55;25.98;;;;;;;;;;5070109;28;20028;-74
2023/05/21 04:44:05;;;;;;;41.80;25.92;;;;;;;;;;5052133;28;20623;-74
2023/05/21 04:46:33;;;;;;;44.22;24.88;;;;;;;;;;5069536;28;20040;-75
2023/05/21 04:49:01;;;;;;;47.30;26.42;;;;;;;;;;5070197;28;20071;-74
2023/05/21 04:51:27;;;;;;;42.80;25.70;;;;;;;;;;5051377;28;20116;-74
2023/05/21 04:53:53;;;;;;;50.28;28.48;;;;;;;;;;5052848;28;20024;-74
2023/05/21 04:56:20;;;;;;;48.72;27.33;;;;;;;;;;5071058;28;20055;-73
2023/05/21 04:58:46;;;;;;;51.10;27.50;;;;;;;;;;5052610;28;20043;-74
2023/05/21 05:01:12;;;;;;;38.85;23.83;;;;;;;;;;5058746;28;20032;-72
2023/05/21 05:03:38;;;;;;;40.22;24.85;;;;;;;;;;5059573;28;20039;-74
2023/05/21 05:06:04;;;;;;;42.92;24.48;;;;;;;;;;5064728;28;20032;-72
2023/05/21 05:08:30;;;;;;;45.92;27.08;;;;;;;;;;5083456;28;20054;-73
2023/05/21 05:10:56;;;;;;;46.10;24.30;;;;;;;;;;5055812;28;20056;-73
2023/05/21 05:13:21;;;;;;;44.17;27.05;;;;;;;;;;5069496;28;20028;-74
2023/05/21 05:15:47;;;;;;;44.03;25.50;;;;;;;;;;5069535;28;20025;-75
2023/05/21 05:18:12;;;;;;;35.40;22.83;;;;;;;;;;5052191;28;20037;-74
2023/05/21 05:20:38;;;;;;;37.75;23.02;;;;;;;;;;5069615;28;20415;-73
2023/05/21 05:23:03;;;;;;;41.78;24.50;;;;;;;;;;5052331;28;20357;-74
2023/05/21 05:25:29;;;;;;;36.30;23.58;;;;;;;;;;5070850;28;20028;-74
2023/05/21 05:27:55;;;;;;;41.80;24.63;;;;;;;;;;5053343;28;20052;-74
2023/05/21 05:30:20;;;;;;;40.65;24.70;;;;;;;;;;5069749;28;20501;-75
2023/05/21 05:32:46;;;;;;;38.58;23.58;;;;;;;;;;5069857;28;20107;-74
2023/05/21 05:35:11;;;;;;;36.85;23.38;;;;;;;;;;5051788;28;20704;-74
2023/05/21 05:37:37;;;;;;;35.42;23.55;;;;;;;;;;5051822;28;20033;-74
2023/05/21 05:40:04;;;;;;;38.03;23.38;;;;;;;;;;5070452;28;20036;-75
2023/05/21 05:42:30;;;;;;;39.22;23.55;;;;;;;;;;5069908;28;20548;-74
2023/05/21 05:44:55;;;;;;;34.08;22.25;;;;;;;;;;5069144;28;20116;-74
2023/05/21 05:47:21;;;;;;;36.22;22.17;;;;;;;;;;5068999;28;20040;-75
2023/05/21 05:49:46;;;;;;;36.90;21.33;;;;;;;;;;5051128;28;20036;-74
2023/05/21 05:52:12;;;;;;;38.20;23.10;;;;;;;;;;5069157;28;20059;-75
2023/05/21 05:54:38;;;;;;;33.38;21.92;;;;;;;;;;5050544;28;20028;-74
2023/05/21 05:57:03;;;;;;;33.60;21.73;;;;;;;;;;5050700;28;20652;-75
2023/05/21 05:59:29;;;;;;;35.45;21.63;;;;;;;;;;5050221;28;20025;-74
2023/05/21 06:01:55;;;;;;;37.47;22.42;;;;;;;;;;5050840;28;20024;-74
2023/05/21 06:04:20;;;;;;;33.95;21.88;;;;;;;;;;5050631;28;20025;-75
2023/05/21 06:06:47;;;;;;;33.30;22.23;;;;;;;;;;5050743;28;20433;-75
2023/05/21 06:09:12;;;;;;;35.45;22.48;;;;;;;;;;5051642;28;20040;-75
2023/05/21 06:11:38;;;;;;;38.42;22.70;;;;;;;;;;5072542;28;20025;-73
2023/05/21 06:14:03;;;;;;;35.22;21.60;;;;;;;;;;5072776;28;20753;-74
2023/05/21 06:16:32;;;;;;;36.85;22.27;;;;;;;;;;5072367;28;20097;-74
2023/05/21 06:18:58;;;;;;;34.95;22.50;;;;;;;;;;5038318;28;20025;-74
2023/05/21 06:21:24;;;;;;;37.88;23.25;;;;;;;;;;5054208;28;20042;-74
2023/05/21 06:23:49;;;;;;;34.08;21.85;;;;;;;;;;5054553;28;20046;-74
2023/05/21 06:26:15;;;;;;;33.85;22.00;;;;;;;;;;5072593;28;20107;-74
2023/05/21 06:28:41;;;;;;;40.65;20.95;;;;;;;;;;5054169;28;20021;-75
2023/05/21 06:31:06;;;;;;;32.72;21.27;;;;;;;;;;5054174;28;20035;-74
2023/05/21 06:33:32;;;;;;;32.92;21.15;;;;;;;;;;5072073;28;20472;-74
2023/05/21 06:35:57;;;;;;;36.45;21.00;;;;;;;;;;5053886;28;20472;-74
2023/05/21 06:38:23;;;;;;;33.17;22.02;;;;;;;;;;5053699;28;20032;-75
2023/05/21 06:40:49;;;;;;;31.88;20.30;;;;;;;;;;5053858;28;20024;-75
2023/05/21 06:43:14;;;;;;;29.98;21.08;;;;;;;;;;5054202;28;20111;-75
2023/05/21 06:45:40;;;;;;;30.75;21.80;;;;;;;;;;5054061;28;20443;-76
2023/05/21 06:48:05;;;;;;;33.72;20.33;;;;;;;;;;5054571;28;20047;-74
2023/05/21 06:50:32;;;;;;;27.23;18.27;;;;;;;;;;5072059;28;20038;-75
2023/05/21 06:52:57;;;;;;;25.77;19.08;;;;;;;;;;5054028;28;20024;-73
2023/05/21 06:55:23;;;;;;;32.60;20.17;;;;;;;;;;5053476;28;20123;-74
2023/05/21 06:57:48;;;;;;;26.75;17.70;;;;;;;;;;5053704;28;20479;-76
2023/05/21 07:00:14;;;;;;;30.02;18.80;;;;;;;;;;5053640;28;20036;-76
2023/05/21 07:02:39;;;;;;;29.65;21.20;;;;;;;;;;5072009;28;20032;-74
2023/05/21 07:05:05;;;;;;;31.10;20.15;;;;;;;;;;5053413;28;20123;-75
2023/05/21 07:07:33;;;;;;;27.58;19.35;;;;;;;;;;5071421;28;20075;-75
2023/05/21 07:09:59;;;;;;;27.50;18.70;;;;;;;;;;5053343;28;20039;-74
2023/05/21 07:12:24;;;;;;;27.95;18.85;;;;;;;;;;5053870;28;20024;-76
2023/05/21 07:14:50;;;;;;;29.73;19.88;;;;;;;;;;5054462;28;20035;-76
2023/05/21 07:17:15;;;;;;;27.13;20.52;;;;;;;;;;5053335;28;20683;-75
2023/05/21 07:19:41;;;;;;;32.50;21.15;;;;;;;;;;5071569;28;20033;-75
2023/05/21 07:22:06;;;;;;;25.45;16.40;;;;;;;;;;5052714;28;20121;-75
2023/05/21 07:24:32;;;;;;;27.77;17.15;;;;;;;;;;5053135;28;20020;-75
2023/05/21 07:26:57;;;;;;;27.63;17.30;;;;;;;;;;5053217;28;20082;-74
2023/05/21 07:29:24;;;;;;;28.13;18.48;;;;;;;;;;5072988;28;20028;-75
2023/05/21 07:31:49;;;;;;;25.15;17.50;;;;;;;;;;5072010;28;20036;-73
2023/05/21 07:34:15;;;;;;;25.55;17.85;;;;;;;;;;5053365;28;20105;-75
2023/05/21 07:36:40;;;;;;;24.92;17.48;;;;;;;;;;5071023;28;20609;-74
2023/05/21 07:39:06;;;;;;;23.90;16.33;;;;;;;;;;5070762;28;20028;-74
2023/05/21 07:41:31;;;;;;;24.33;16.95;;;;;;;;;;5070589;28;20423;-74
2023/05/21 07:43:57;;;;;;;24.17;16.50;;;;;;;;;;5070885;28;20052;-75
2023/05/21 07:46:22;;;;;;;26.52;16.88;;;;;;;;;;5052385;28;20052;-76
2023/05/21 07:48:48;;;;;;;27.17;17.63;;;;;;;;;;5070930;28;20039;-74
2023/05/21 07:51:15;;;;;;;26.58;17.17;;;;;;;;;;5070529;28;20388;-75
2023/05/21 07:53:40;;;;;;;27.70;17.88;;;;;;;;;;5069970;28;20020;-74
2023/05/21 07:56:06;;;;;;;27.45;18.75;;;;;;;;;;5052060;28;20044;-74
2023/05/21 07:58:33;;;;;;;27.40;18.13;;;;;;;;;;5052059;28;20123;-75
2023/05/21 08:00:59;;;;;;;23.08;17.08;;;;;;;;;;5027926;28;20044;-77
2023/05/21 08:03:25;;;;;;;24.52;17.58;;;;;;;;;;5028082;28;20235;-76
2023/05/21 08:05:50;;;;;;;28.38;17.90;;;;;;;;;;5011765;28;20410;-77
2023/05/21 08:08:18;;;;;;;27.77;18.60;;;;;;;;;;5011821;28;20025;-78
2023/05/21 08:10:45;;;;;;;27.98;17.17;;;;;;;;;;4994957;28;20255;-76
2023/05/21 08:13:11;;;;;;;31.25;23.27;;;;;;;;;;5011242;28;20113;-76
2023/05/21 08:15:37;;;;;;;24.25;16.80;;;;;;;;;;5010757;28;20033;-76
2023/05/21 08:18:03;;;;;;;27.10;16.00;;;;;;;;;;5027573;28;20025;-77
2023/05/21 08:20:30;;;;;;;22.77;17.30;;;;;;;;;;5027651;28;20033;-78
2023/05/21 08:22:56;;;;;;;26.65;20.08;;;;;;;;;;5011276;28;20041;-77
2023/05/21 08:25:21;;;;;;;27.05;17.90;;;;;;;;;;5027929;28;20022;-77
2023/05/21 08:27:47;;;;;;;26.38;18.25;;;;;;;;;;5027453;28;20037;-77
2023/05/21 08:30:13;;;;;;;27.98;17.40;;;;;;;;;;5027920;28;20026;-79
2023/05/21 08:32:39;;;;;;;28.33;17.48;;;;;;;;;;5060397;28;20038;-77
2023/05/21 08:35:06;;;;;;;23.10;16.80;;;;;;;;;;5051870;28;20036;-78
2023/05/21 08:37:31;;;;;;;26.08;17.20;;;;;;;;;;5051058;28;20637;-77
2023/05/21 08:39:57;;;;;;;24.23;18.00;;;;;;;;;;5069677;28;20032;-77
2023/05/21 08:42:46;;;;;;;25.17;17.92;;;;;;;;;;5069870;28;20027;-76
2023/05/21 08:45:13;;;;;;;27.85;17.67;;;;;;;;;;5052530;28;20035;-76
2023/05/21 08:47:41;;;;;;;23.55;17.80;;;;;;;;;;5070008;28;20024;-77
2023/05/21 08:50:09;;;;;;;23.25;17.33;;;;;;;;;;5071510;28;20040;-76
2023/05/21 08:52:36;;;;;;;29.23;17.38;;;;;;;;;;5070033;28;20024;-78
2023/05/21 08:55:07;;;;;;;26.17;16.27;;;;;;;;;;5052402;28;20027;-77
2023/05/21 08:57:33;;;;;;;20.23;15.90;;;;;;;;;;5035386;28;20106;-77
2023/05/21 08:59:58;;;;;;;27.10;16.98;;;;;;;;;;5051962;28;20035;-77
2023/05/21 09:02:24;;;;;;;20.25;15.50;;;;;;;;;;5069750;28;20024;-78
2023/05/21 09:04:57;;;;;;;20.63;14.48;;;;;;;;;;5051847;28;20043;-76
2023/05/21 09:07:27;;;;;;;20.08;14.15;;;;;;;;;;5051641;28;20063;-76
2023/05/21 09:10:02;;;;;;;37.75;15.82;;;;;;;;;;5069719;28;20028;-76
2023/05/21 09:12:28;;;;;;;21.45;15.45;;;;;;;;;;5051337;28;20059;-77
2023/05/21 09:14:56;;;;;;;20.33;13.88;;;;;;;;;;5069818;28;20060;-76
2023/05/21 09:17:23;;;;;;;20.08;15.00;;;;;;;;;;5071013;28;20107;-78
2023/05/21 09:20:10;;;;;;;21.15;14.93;;;;;;;;;;5052945;28;20040;-78
2023/05/21 09:22:40;;;;;;;23.70;14.65;;;;;;;;;;5058722;28;20032;-77
2023/05/21 09:25:07;;;;;;;24.08;14.70;;;;;;;;;;5066046;28;20035;-76
2023/05/21 09:27:33;;;;;;;21.50;14.13;;;;;;;;;;5087192;28;20041;-76
2023/05/21 09:29:59;;;;;;;18.40;14.13;;;;;;;;;;5084772;28;20028;-77
2023/05/21 09:32:24;;;;;;;21.67;15.02;;;;;;;;;;5038959;28;20028;-77
2023/05/21 09:34:50;;;;;;;17.52;13.05;;;;;;;;;;5054686;28;20469;-77
2023/05/21 09:37:15;;;;;;;20.70;14.85;;;;;;;;;;5074330;28;20025;-77
2023/05/21 09:39:42;;;;;;;17.77;12.65;;;;;;;;;;5073104;28;20055;-76
2023/05/21 09:42:07;;;;;;;19.48;12.88;;;;;;;;;;5070556;28;20093;-76
2023/05/21 09:44:34;;;;;;;20.60;13.15;;;;;;;;;;5052284;28;20055;-75
2023/05/21 09:47:01;;;;;;;17.63;13.20;;;;;;;;;;5055188;28;20634;-77
2023/05/21 09:49:26;;;;;;;18.80;13.57;;;;;;;;;;5073687;28;20119;-77
2023/05/21 09:51:56;;;;;;;18.38;13.13;;;;;;;;;;5055167;28;20551;-78
2023/05/21 09:54:23;;;;;;;19.23;13.82;;;;;;;;;;5055466;28;20086;-76
2023/05/21 09:56:50;;;;;;;20.88;14.30;;;;;;;;;;5055200;28;20040;-76
2023/05/21 09:59:16;;;;;;;19.42;13.27;;;;;;;;;;5073529;28;20032;-77
2023/05/21 10:01:42;;;;;;;15.63;12.27;;;;;;;;;;5072677;28;20035;-76
2023/05/21 10:04:08;;;;;;;19.20;12.85;;;;;;;;;;5055010;28;20101;-76
2023/05/21 10:06:40;;;;;;;19.52;12.20;;;;;;;;;;5072855;28;20484;-77
2023/05/21 10:09:09;;;;;;;20.45;12.95;;;;;;;;;;5072760;28;20074;-77
2023/05/21 10:11:35;;;;;;;19.55;12.50;;;;;;;;;;5054204;28;20034;-78
2023/05/21 10:14:13;;;;;;;18.25;13.45;;;;;;;;;;5038150;28;20035;-77
2023/05/21 10:16:39;;;;;;;17.50;12.60;;;;;;;;;;5054076;28;20457;-76
2023/05/21 10:19:09;;;;;;;17.98;12.50;;;;;;;;;;5072242;28;20518;-78
2023/05/21 10:21:35;;;;;;;17.55;11.93;;;;;;;;;;5054643;28;20048;-78
2023/05/21 10:24:02;;;;;;;19.42;11.73;;;;;;;;;;5072099;28;20020;-77
2023/05/21 10:26:29;;;;;;;18.35;12.45;;;;;;;;;;5072520;28;20108;-77
2023/05/21 10:28:56;;;;;;;17.08;11.02;;;;;;;;;;5053648;28;20035;-78
2023/05/21 10:31:23;;;;;;;16.85;11.38;;;;;;;;;;5053805;28;20488;-77
2023/05/21 10:33:49;;;;;;;17.80;11.63;;;;;;;;;;5053375;28;20170;-78
2023/05/21 10:36:19;;;;;;;14.32;11.32;;;;;;;;;;5053889;28;20109;-78
2023/05/21 10:38:46;;;;;;;18.17;10.93;;;;;;;;;;5072104;28;20381;-77
2023/05/21 10:41:14;;;;;;;17.67;12.02;;;;;;;;;;5054581;28;20089;-77
2023/05/21 10:43:54;;;;;;;21.60;12.25;;;;;;;;;;5053896;28;20055;-77
2023/05/21 10:46:54;;;;;;;17.33;10.50;;;;;;;;;;5071617;28;20032;-77
2023/05/21 10:49:42;;;;;;;18.67;11.52;;;;;;;;;;5054049;28;20372;-78
2023/05/21 10:52:38;;;;;;;17.23;11.18;;;;;;;;;;5053888;28;20097;-76
2023/05/21 10:55:31;;;;;;;13.48;10.65;;;;;;;;;;5054211;28;20031;-77
2023/05/21 10:58:31;;;;;;;20.35;10.77;;;;;;;;;;5053822;28;20072;-77
2023/05/21 11:00:58;;;;;;;14.93;10.32;;;;;;;;;;5071660;28;20099;-78
2023/05/21 11:03:26;;;;;;;13.73;9.90;;;;;;;;;;5054006;28;20029;-77
2023/05/21 11:05:54;;;;;;;13.20;10.82;;;;;;;;;;5071752;28;20070;-77
2023/05/21 11:08:25;;;;;;;14.50;10.80;;;;;;;;;;5072261;28;20170;-78
2023/05/21 11:10:52;;;;;;;13.25;10.60;;;;;;;;;;5053635;28;20025;-76
2023/05/21 11:13:21;;;;;;;13.57;10.18;;;;;;;;;;5053608;28;20024;-77
2023/05/21 11:16:12;;;;;;;14.35;10.65;;;;;;;;;;5071513;28;20031;-76
2023/05/21 11:18:37;;;;;;;14.77;9.77;;;;;;;;;;5071539;28;20070;-76
2023/05/21 11:21:06;;;;;;;12.55;10.63;;;;;;;;;;5072123;28;20028;-77
2023/05/21 11:23:50;;;;;;;13.77;10.63;;;;;;;;;;5073654;28;20028;-78
2023/05/21 11:26:16;;;;;;;12.05;10.25;;;;;;;;;;5053657;28;20029;-77
2023/05/21 11:28:42;;;;;;;12.65;10.25;;;;;;;;;;5052994;28;20165;-76
2023/05/21 11:31:28;;;;;;;11.82;9.60;;;;;;;;;;5053672;28;20017;-78
2023/05/21 11:34:26;;;;;;;16.30;10.15;;;;;;;;;;5071260;28;20028;-77
2023/05/21 11:37:15;;;;;;;12.25;10.18;;;;;;;;;;5052936;28;20225;-77
2023/05/21 11:39:40;;;;;;;14.45;10.10;;;;;;;;;;5052538;28;20033;-77
2023/05/21 11:42:07;;;;;;;13.05;10.25;;;;;;;;;;5071616;28;20071;-76
2023/05/21 11:44:46;;;;;;;14.80;10.38;;;;;;;;;;5071351;28;20476;-76
2023/05/21 11:47:13;;;;;;;13.32;9.52;;;;;;;;;;5070938;28;20028;-76
2023/05/21 11:49:39;;;;;;;13.95;9.43;;;;;;;;;;5052786;28;20138;-77
2023/05/21 11:52:06;;;;;;;12.90;9.18;;;;;;;;;;5053598;28;20464;-76
2023/05/21 11:54:37;;;;;;;15.90;9.60;;;;;;;;;;5071245;28;20024;-76
2023/05/21 11:57:07;;;;;;;11.18;9.35;;;;;;;;;;5071267;28;20147;-77
2023/05/21 11:59:35;;;;;;;9.87;8.77;;;;;;;;;;5052605;28;20174;-76
2023/05/21 12:02:01;;;;;;;11.40;9.25;;;;;;;;;;5052781;28;20423;-75
2023/05/21 12:04:35;;;;;;;9.23;8.05;;;;;;;;;;5036529;28;20093;-77
2023/05/21 12:07:08;;;;;;;12.02;6.82;;;;;;;;;;5052817;28;20040;-77
2023/05/21 12:09:50;;;;;;;10.68;8.43;;;;;;;;;;5051907;28;20017;-76
2023/05/21 12:12:21;;;;;;;16.65;9.73;;;;;;;;;;5052132;28;20025;-77
2023/05/21 12:14:49;;;;;;;11.93;8.80;;;;;;;;;;5051462;28;20082;-76
2023/05/21 12:17:16;;;;;;;11.70;8.38;;;;;;;;;;5035097;28;20472;-77
2023/05/21 12:19:42;;;;;;;11.63;9.07;;;;;;;;;;5070114;28;20024;-76
2023/05/21 12:22:08;;;;;;;11.38;8.85;;;;;;;;;;5070117;28;20036;-78
2023/05/21 12:24:35;;;;;;;15.45;9.48;;;;;;;;;;5070001;28;20028;-77
2023/05/21 12:27:08;;;;;;;13.23;8.48;;;;;;;;;;5070029;28;20020;-77
2023/05/21 12:29:35;;;;;;;10.38;7.97;;;;;;;;;;5052171;28;20036;-76
2023/05/21 12:32:02;;;;;;;10.73;7.93;;;;;;;;;;5069906;28;20104;-77
2023/05/21 12:34:45;;;;;;;9.80;8.13;;;;;;;;;;5070385;28;20118;-77
2023/05/21 12:37:13;;;;;;;11.15;7.78;;;;;;;;;;5052027;28;20036;-77
2023/05/21 12:39:46;;;;;;;8.82;7.63;;;;;;;;;;5069870;28;20024;-75
2023/05/21 12:42:13;;;;;;;13.85;7.47;;;;;;;;;;5052324;28;20669;-76
2023/05/21 12:44:42;;;;;;;10.23;7.88;;;;;;;;;;5034762;28;20085;-77
2023/05/21 12:47:10;;;;;;;15.88;9.45;;;;;;;;;;5051581;28;20029;-78
2023/05/21 12:49:38;;;;;;;11.13;8.07;;;;;;;;;;5069632;28;20040;-77
2023/05/21 12:52:07;;;;;;;9.63;6.82;;;;;;;;;;5051595;28;20028;-77
2023/05/21 12:54:35;;;;;;;11.02;6.82;;;;;;;;;;5051550;28;20353;-77
2023/05/21 12:57:37;;;;;;;14.60;6.80;;;;;;;;;;5051152;28;20040;-78
2023/05/21 13:00:05;;;;;;;8.00;6.75;;;;;;;;;;5051227;28;20047;-76
2023/05/21 13:02:37;;;;;;;9.02;5.78;;;;;;;;;;5069731;28;20048;-77
2023/05/21 13:05:04;;;;;;;7.70;5.20;;;;;;;;;;5069693;28;20836;-77
2023/05/21 13:07:32;;;;;;;8.43;6.03;;;;;;;;;;5069565;28;20396;-77
2023/05/21 13:09:59;;;;;;;10.68;7.53;;;;;;;;;;5051355;28;20024;-76
2023/05/21 13:12:27;;;;;;;10.82;6.93;;;;;;;;;;5051791;28;20103;-78
2023/05/21 13:14:56;;;;;;;7.63;6.30;;;;;;;;;;5050511;28;20035;-75
2023/05/21 13:17:22;;;;;;;8.30;6.03;;;;;;;;;;5070249;28;20028;-77
2023/05/21 13:20:14;;;;;;;8.95;6.03;;;;;;;;;;5049828;28;20059;-78
2023/05/21 13:22:48;;;;;;;9.20;5.75;;;;;;;;;;5069199;28;20028;-77
2023/05/21 13:25:17;;;;;;;9.18;5.70;;;;;;;;;;5069281;28;20758;-77
2023/05/21 13:27:43;;;;;;;23.45;7.50;;;;;;;;;;5034749;28;20028;-78
2023/05/21 13:30:10;;;;;;;11.43;5.45;;;;;;;;;;5069202;28;20051;-78
2023/05/21 13:32:36;;;;;;;6.43;5.13;;;;;;;;;;5051263;28;20027;-78
2023/05/21 13:35:02;;;;;;;6.38;5.53;;;;;;;;;;5051171;28;20108;-78
2023/05/21 13:37:28;;;;;;;11.25;5.88;;;;;;;;;;5069533;28;20035;-78
2023/05/21 13:39:53;;;;;;;14.73;6.85;;;;;;;;;;5051549;28;20035;-78
2023/05/21 13:42:20;;;;;;;8.80;5.70;;;;;;;;;;5052293;28;20472;-77
2023/05/21 13:44:49;;;;;;;14.52;7.95;;;;;;;;;;5052431;28;20052;-78
2023/05/21 13:47:15;;;;;;;6.93;5.93;;;;;;;;;;5052099;28;20024;-77
2023/05/21 13:49:41;;;;;;;8.63;6.47;;;;;;;;;;5072939;28;20302;-78
2023/05/21 13:52:07;;;;;;;13.65;6.88;;;;;;;;;;5072623;28;20029;-77
2023/05/21 13:54:33;;;;;;;10.32;6.40;;;;;;;;;;5074921;28;20020;-78
2023/05/21 13:56:59;;;;;;;13.27;6.93;;;;;;;;;;5072435;28;20101;-76
2023/05/21 13:59:26;;;;;;;7.95;6.13;;;;;;;;;;5074907;28;20036;-77
2023/05/21 14:01:51;;;;;;;12.32;6.57;;;;;;;;;;5051187;28;20059;-78
2023/05/21 14:04:19;;;;;;;8.60;5.80;;;;;;;;;;5050868;28;20048;-78
2023/05/21 14:06:46;;;;;;;8.63;6.20;;;;;;;;;;5050254;28;20441;-76
2023/05/21 14:09:12;;;;;;;7.72;6.18;;;;;;;;;;5050935;28;20036;-78
2023/05/21 14:11:37;;;;;;;8.65;5.32;;;;;;;;;;5069091;28;20028;-77
2023/05/21 14:14:03;;;;;;;4.95;4.45;;;;;;;;;;5068895;28;20666;-79
2023/05/21 14:16:29;;;;;;;7.93;5.78;;;;;;;;;;5068818;28;20020;-78
2023/05/21 14:18:55;;;;;;;11.75;5.90;;;;;;;;;;5050580;28;20383;-78
2023/05/21 14:21:21;;;;;;;15.43;5.57;;;;;;;;;;5050705;28;20500;-77
2023/05/21 14:23:47;;;;;;;7.00;5.43;;;;;;;;;;5050557;28;20020;-77